Little Rock, Arkansas
Current Conditions -  °F | °C
As of 2:53 AM on Friday 31 Oct 2014 (Local Time) from KLIT Reporting Station
Clear Clear  
Wind Chill: 58°   Ceiling: Unl
Heat Index: 58°   Visibility: 10mi
Dew Point: 45°   Wind: 12mph
Humidity: 62%   Direction: 310°NW
Pressure: 30.06"   Gusts: NA
Location:  34.75°N, 92.27°W
Report Text: KLIT 310753Z 31010KT 10SM CLR 14/07 A3006 RMK AO2 SLP180 T01440072
Loading
Personal Weather Stations






























Interactive Weather Map
Tropical Storm Tracking
New forecast layout! Learn more

10-Day Weather Forecast

Advertisements
Track Severe Weather on mobile